Time,TemperatureF,DewpointF,PressureIn,WindDirection,WindDirectionDegrees,WindSpeedMPH,WindSpeedGustMPH,Humidity,HourlyPrecipIn,Conditions,Clouds,dailyrainin,SoftwareType,DateUTC
2013-05-09 00:03:00,68.0,60.0,30.12,WNW,282,5.0,9.0,74,-99.99,,,-99.99,,2013-05-09 04:03:00,
2013-05-09 00:13:00,68.0,60.0,30.12,WNW,282,5.0,9.0,74,-99.99,,,-99.99,,2013-05-09 04:13:00,
2013-05-09 00:23:00,67.0,60.0,30.13,WNW,285,4.0,9.0,77,-99.99,,,-99.99,,2013-05-09 04:23:00,
2013-05-09 00:33:00,67.0,60.0,30.13,WNW,285,4.0,9.0,77,-99.99,,,-99.99,,2013-05-09 04:33:00,
2013-05-09 00:43:00,66.0,59.0,30.13,West,278,4.0,8.0,78,-99.99,,,-99.99,,2013-05-09 04:43:00,
2013-05-09 00:53:00,66.0,59.0,30.13,West,278,4.0,8.0,78,-99.99,,,-99.99,,2013-05-09 04:53:00,
2013-05-09 01:02:00,66.0,60.0,30.14,WNW,287,3.0,6.0,79,-99.99,,,-99.99,,2013-05-09 05:02:00,
2013-05-09 01:12:00,66.0,60.0,30.14,WNW,287,3.0,6.0,79,-99.99,,,-99.99,,2013-05-09 05:12:00,
2013-05-09 01:22:00,67.0,60.0,30.12,NW,309,8.0,10.0,79,-99.99,,,-99.99,,2013-05-09 05:22:00,
2013-05-09 01:32:00,67.0,60.0,30.12,NW,309,8.0,10.0,79,-99.99,,,-99.99,,2013-05-09 05:32:00,
2013-05-09 01:42:00,67.0,60.0,30.13,NW,312,8.0,10.0,79,-99.99,,,-99.99,,2013-05-09 05:42:00,
2013-05-09 01:52:00,67.0,61.0,30.12,NW,306,7.0,10.0,80,-99.99,,,-99.99,,2013-05-09 05:52:00,
2013-05-09 02:02:00,67.0,61.0,30.12,NW,306,7.0,10.0,80,-99.99,,,-99.99,,2013-05-09 06:02:00,
2013-05-09 02:12:00,66.0,61.0,30.12,WNW,302,7.0,11.0,81,-99.99,,,-99.99,,2013-05-09 06:12:00,
2013-05-09 02:22:00,66.0,61.0,30.12,WNW,302,7.0,11.0,81,-99.99,,,-99.99,,2013-05-09 06:22:00,
2013-05-09 02:32:00,67.0,61.0,30.11,NW,309,7.0,11.0,81,-99.99,,,-99.99,,2013-05-09 06:32:00,
2013-05-09 02:42:00,67.0,61.0,30.11,NW,309,7.0,11.0,81,-99.99,,,-99.99,,2013-05-09 06:42:00,
2013-05-09 02:52:00,67.0,61.0,30.11,NW,312,7.0,11.0,83,-99.99,,,-99.99,,2013-05-09 06:52:00,
2013-05-09 03:01:00,67.0,61.0,30.11,NW,312,7.0,11.0,83,-99.99,,,-99.99,,2013-05-09 07:01:00,
2013-05-09 03:12:00,67.0,61.0,30.09,NW,319,8.0,10.0,82,-99.99,,,-99.99,,2013-05-09 07:12:00,
2013-05-09 03:22:00,67.0,61.0,30.09,NW,319,8.0,10.0,82,-99.99,,,-99.99,,2013-05-09 07:22:00,
2013-05-09 03:32:00,67.0,61.0,30.09,NW,319,8.0,10.0,82,-99.99,,,-99.99,,2013-05-09 07:32:00,
2013-05-09 03:42:00,67.0,62.0,30.09,NW,322,7.0,9.0,83,-99.99,,,-99.99,,2013-05-09 07:42:00,
2013-05-09 03:52:00,67.0,62.0,30.09,NNW,327,8.0,11.0,82,-99.99,,,-99.99,,2013-05-09 07:52:00,
2013-05-09 04:02:00,67.0,62.0,30.09,NNW,327,8.0,11.0,82,-99.99,,,-99.99,,2013-05-09 08:02:00,
2013-05-09 04:11:00,67.0,62.0,30.08,NNW,331,7.0,10.0,83,-99.99,,,-99.99,,2013-05-09 08:11:00,
2013-05-09 04:22:00,67.0,62.0,30.08,NNW,331,7.0,10.0,83,-99.99,,,-99.99,,2013-05-09 08:22:00,
2013-05-09 04:32:00,67.0,62.0,30.08,NNW,331,7.0,10.0,83,-99.99,,,-99.99,,2013-05-09 08:32:00,
2013-05-09 04:42:00,67.0,62.0,30.08,NW,325,6.0,10.0,83,-99.99,,,-99.99,,2013-05-09 08:42:00,
2013-05-09 04:52:00,67.0,62.0,30.08,NNW,334,7.0,9.0,83,-99.99,,,-99.99,,2013-05-09 08:52:00,
2013-05-09 05:02:00,67.0,62.0,30.08,NNW,334,7.0,9.0,83,-99.99,,,-99.99,,2013-05-09 09:02:00,
2013-05-09 05:12:00,67.0,62.0,30.08,NNW,331,7.0,9.0,84,-99.99,,,-99.99,,2013-05-09 09:12:00,
2013-05-09 05:22:00,64.0,59.0,30.09,West,277,3.0,7.0,82,-99.99,,,-99.99,,2013-05-09 09:22:00,
2013-05-09 05:32:00,64.0,59.0,30.09,West,277,3.0,7.0,82,-99.99,,,-99.99,,2013-05-09 09:32:00,
2013-05-09 05:43:00,57.0,53.0,30.08,WSW,239,2.0,3.0,85,-99.99,,,-99.99,,2013-05-09 09:43:00,
2013-05-09 05:53:00,57.0,54.0,30.09,SW,231,2.0,3.0,89,-99.99,,,-99.99,,2013-05-09 09:53:00,
2013-05-09 06:02:00,57.0,54.0,30.09,SW,231,2.0,3.0,89,-99.99,,,-99.99,,2013-05-09 10:02:00,
2013-05-09 06:12:00,57.0,54.0,30.09,WSW,255,2.0,4.0,92,-99.99,,,-99.99,,2013-05-09 10:12:00,
2013-05-09 06:23:00,57.0,54.0,30.09,WSW,255,2.0,4.0,92,-99.99,,,-99.99,,2013-05-09 10:23:00,
2013-05-09 06:33:00,57.0,54.0,30.09,WSW,255,2.0,4.0,92,-99.99,,,-99.99,,2013-05-09 10:33:00,
2013-05-09 06:42:00,57.0,54.0,30.09,WSW,255,2.0,4.0,92,-99.99,,,-99.99,,2013-05-09 10:42:00,
2013-05-09 06:53:00,55.0,53.0,30.10,WSW,246,2.0,3.0,93,-99.99,,,-99.99,,2013-05-09 10:53:00,
2013-05-09 07:02:00,55.0,53.0,30.10,WSW,246,2.0,3.0,93,-99.99,,,-99.99,,2013-05-09 11:02:00,
2013-05-09 07:12:00,55.0,53.0,30.10,WSW,250,2.0,3.0,93,-99.99,,,-99.99,,2013-05-09 11:12:00,
2013-05-09 07:22:00,55.0,53.0,30.10,WSW,250,2.0,3.0,93,-99.99,,,-99.99,,2013-05-09 11:22:00,
2013-05-09 07:32:00,55.0,53.0,30.10,WSW,250,2.0,3.0,93,-99.99,,,-99.99,,2013-05-09 11:32:00,
2013-05-09 07:42:00,55.0,53.0,30.10,West,266,3.0,4.0,94,-99.99,,,-99.99,,2013-05-09 11:42:00,
2013-05-09 07:52:00,58.0,57.0,30.11,West,277,3.0,5.0,95,-99.99,,,-99.99,,2013-05-09 11:52:00,
2013-05-09 08:02:00,58.0,57.0,30.11,West,277,3.0,5.0,95,-99.99,,,-99.99,,2013-05-09 12:02:00,
2013-05-09 08:12:00,63.0,61.0,30.12,WNW,286,3.0,4.0,94,-99.99,,,-99.99,,2013-05-09 12:12:00,
2013-05-09 08:22:00,63.0,61.0,30.12,WNW,286,3.0,4.0,94,-99.99,,,-99.99,,2013-05-09 12:22:00,
2013-05-09 08:32:00,63.0,61.0,30.12,WNW,286,3.0,4.0,94,-99.99,,,-99.99,,2013-05-09 12:32:00,
2013-05-09 08:42:00,65.0,63.0,30.12,NW,319,4.0,7.0,92,-99.99,,,-99.99,,2013-05-09 12:42:00,
2013-05-09 08:52:00,67.0,63.0,30.13,NNW,330,5.0,8.0,88,-99.99,,,-99.99,,2013-05-09 12:52:00,
2013-05-09 09:02:00,67.0,63.0,30.13,NNW,330,5.0,8.0,88,-99.99,,,-99.99,,2013-05-09 13:02:00,
2013-05-09 09:12:00,68.0,63.0,30.13,NNW,340,6.0,8.0,82,-99.99,,,-99.99,,2013-05-09 13:12:00,
2013-05-09 09:22:00,68.0,63.0,30.13,NNW,340,6.0,8.0,82,-99.99,,,-99.99,,2013-05-09 13:22:00,
2013-05-09 09:32:00,68.0,63.0,30.13,NNW,340,6.0,8.0,82,-99.99,,,-99.99,,2013-05-09 13:32:00,
2013-05-09 09:42:00,69.0,63.0,30.14,NNW,331,6.0,8.0,80,-99.99,,,-99.99,,2013-05-09 13:42:00,
2013-05-09 09:52:00,70.0,63.0,30.14,NNW,332,6.0,9.0,78,-99.99,,,-99.99,,2013-05-09 13:52:00,
2013-05-09 10:02:00,70.0,63.0,30.14,NNW,332,6.0,9.0,78,-99.99,,,-99.99,,2013-05-09 14:02:00,
2013-05-09 10:11:00,71.0,63.0,30.15,NW,325,7.0,12.0,77,-99.99,,,-99.99,,2013-05-09 14:11:00,
2013-05-09 10:22:00,71.0,63.0,30.15,NW,325,7.0,12.0,77,-99.99,,,-99.99,,2013-05-09 14:22:00,
2013-05-09 10:32:00,71.0,63.0,30.15,NW,325,7.0,12.0,77,-99.99,,,-99.99,,2013-05-09 14:32:00,
2013-05-09 10:42:00,71.0,64.0,30.15,NW,324,7.0,10.0,77,-99.99,,,-99.99,,2013-05-09 14:42:00,
2013-05-09 10:52:00,72.0,64.0,30.14,NW,324,6.0,10.0,75,-99.99,,,-99.99,,2013-05-09 14:52:00,
2013-05-09 11:02:00,72.0,64.0,30.14,NW,324,6.0,10.0,75,-99.99,,,-99.99,,2013-05-09 15:02:00,
2013-05-09 11:11:00,73.0,63.0,30.14,NW,321,7.0,10.0,71,-99.99,,,-99.99,,2013-05-09 15:11:00,
2013-05-09 11:22:00,73.0,63.0,30.14,NW,321,7.0,10.0,71,-99.99,,,-99.99,,2013-05-09 15:22:00,
2013-05-09 11:33:00,73.0,63.0,30.14,NW,321,7.0,10.0,71,-99.99,,,-99.99,,2013-05-09 15:33:00,
2013-05-09 11:43:00,73.0,63.0,30.14,NW,323,6.0,10.0,68,-99.99,,,-99.99,,2013-05-09 15:43:00,
2013-05-09 11:53:00,74.0,62.0,30.14,NW,321,5.0,8.0,64,-99.99,,,-99.99,,2013-05-09 15:53:00,
2013-05-09 12:03:00,74.0,62.0,30.14,NW,321,5.0,8.0,64,-99.99,,,-99.99,,2013-05-09 16:03:00,
2013-05-09 12:12:00,74.0,61.0,30.14,NW,316,6.0,8.0,62,-99.99,,,-99.99,,2013-05-09 16:12:00,
2013-05-09 12:23:00,74.0,61.0,30.14,NW,316,6.0,8.0,62,-99.99,,,-99.99,,2013-05-09 16:23:00,
2013-05-09 12:33:00,74.0,61.0,30.14,NW,316,6.0,8.0,62,-99.99,,,-99.99,,2013-05-09 16:33:00,
2013-05-09 12:42:00,75.0,62.0,30.14,NW,322,5.0,7.0,62,-99.99,,,-99.99,,2013-05-09 16:42:00,
2013-05-09 12:53:00,76.0,62.0,30.15,NW,325,5.0,7.0,60,-99.99,,,-99.99,,2013-05-09 16:53:00,
2013-05-09 13:02:00,76.0,62.0,30.15,NW,325,5.0,7.0,60,-99.99,,,-99.99,,2013-05-09 17:02:00,
2013-05-09 13:12:00,77.0,61.0,30.15,NW,321,5.0,9.0,57,-99.99,,,-99.99,,2013-05-09 17:12:00,
2013-05-09 13:22:00,77.0,61.0,30.15,NW,321,5.0,9.0,57,-99.99,,,-99.99,,2013-05-09 17:22:00,
2013-05-09 13:32:00,77.0,61.0,30.15,NW,321,5.0,9.0,57,-99.99,,,-99.99,,2013-05-09 17:32:00,
2013-05-09 13:42:00,77.0,61.0,30.13,NW,325,6.0,9.0,57,-99.99,,,-99.99,,2013-05-09 17:42:00,
2013-05-09 13:55:00,77.0,61.0,30.13,NNW,333,6.0,8.0,56,-99.99,,,-99.99,,2013-05-09 17:55:00,
2013-05-09 14:02:00,77.0,61.0,30.13,NNW,333,6.0,8.0,56,-99.99,,,-99.99,,2013-05-09 18:02:00,
2013-05-09 14:12:00,78.0,59.0,30.13,NNW,332,6.0,8.0,52,-99.99,,,-99.99,,2013-05-09 18:12:00,
2013-05-09 14:22:00,78.0,59.0,30.13,NNW,332,6.0,8.0,52,-99.99,,,-99.99,,2013-05-09 18:22:00,
2013-05-09 14:32:00,78.0,59.0,30.13,NNW,332,6.0,8.0,52,-99.99,,,-99.99,,2013-05-09 18:32:00,
2013-05-09 14:42:00,78.0,60.0,30.12,NNW,334,6.0,8.0,53,-99.99,,,-99.99,,2013-05-09 18:42:00,
2013-05-09 14:52:00,78.0,60.0,30.12,NNW,334,6.0,8.0,53,-99.99,,,-99.99,,2013-05-09 18:52:00,
2013-05-09 15:01:00,79.0,57.0,30.11,NNW,333,6.0,8.0,47,-99.99,,,-99.99,,2013-05-09 19:01:00,
2013-05-09 15:12:00,79.0,55.0,30.11,NNW,328,5.0,7.0,42,-99.99,,,-99.99,,2013-05-09 19:12:00,
2013-05-09 15:21:00,79.0,55.0,30.11,NNW,328,5.0,7.0,42,-99.99,,,-99.99,,2013-05-09 19:21:00,
2013-05-09 15:32:00,79.0,55.0,30.11,NNW,328,5.0,7.0,42,-99.99,,,-99.99,,2013-05-09 19:32:00,
2013-05-09 15:42:00,80.0,59.0,30.09,NNW,327,6.0,10.0,47,-99.99,,,-99.99,,2013-05-09 19:42:00,
2013-05-09 15:52:00,80.0,59.0,30.09,NNW,327,6.0,10.0,47,-99.99,,,-99.99,,2013-05-09 19:52:00,
2013-05-09 16:01:00,80.0,59.0,30.09,NNW,337,6.0,9.0,48,-99.99,,,-99.99,,2013-05-09 20:01:00,
2013-05-09 16:11:00,81.0,57.0,30.08,NW,315,5.0,9.0,44,-99.99,,,-99.99,,2013-05-09 20:11:00,
2013-05-09 16:22:00,81.0,57.0,30.08,NW,315,5.0,9.0,44,-99.99,,,-99.99,,2013-05-09 20:22:00,
2013-05-09 16:32:00,81.0,57.0,30.08,NW,315,5.0,9.0,44,-99.99,,,-99.99,,2013-05-09 20:32:00,
2013-05-09 16:42:00,81.0,57.0,30.07,NNW,334,6.0,9.0,43,-99.99,,,-99.99,,2013-05-09 20:42:00,
2013-05-09 16:52:00,81.0,57.0,30.07,NNW,334,6.0,9.0,43,-99.99,,,-99.99,,2013-05-09 20:52:00,
2013-05-09 17:02:00,81.0,58.0,30.07,NNW,343,7.0,9.0,45,-99.99,,,-99.99,,2013-05-09 21:02:00,
2013-05-09 17:12:00,81.0,59.0,30.07,NW,321,7.0,8.0,46,-99.99,,,-99.99,,2013-05-09 21:12:00,
2013-05-09 17:22:00,81.0,59.0,30.07,NW,321,7.0,8.0,46,-99.99,,,-99.99,,2013-05-09 21:22:00,
2013-05-09 17:32:00,81.0,59.0,30.07,NW,321,7.0,8.0,46,-99.99,,,-99.99,,2013-05-09 21:32:00,
2013-05-09 17:43:00,81.0,59.0,30.07,NNW,333,6.0,8.0,46,-99.99,,,-99.99,,2013-05-09 21:43:00,
2013-05-09 17:53:00,81.0,59.0,30.07,NNW,333,6.0,8.0,46,-99.99,,,-99.99,,2013-05-09 21:53:00,
2013-05-09 18:03:00,81.0,59.0,30.07,NNW,333,6.0,8.0,46,-99.99,,,-99.99,,2013-05-09 22:03:00,
2013-05-09 18:13:00,81.0,59.0,30.07,NNW,333,6.0,8.0,46,-99.99,,,-99.99,,2013-05-09 22:13:00,
2013-05-09 21:01:00,75.0,63.0,30.08,East,81,6.0,11.0,66,-99.99,,,-99.99,,2013-05-10 01:01:00,
2013-05-09 21:11:00,74.0,64.0,30.08,East,89,6.0,11.0,70,-99.99,,,-99.99,,2013-05-10 01:11:00,
2013-05-09 21:22:00,74.0,64.0,30.08,East,89,6.0,11.0,70,-99.99,,,-99.99,,2013-05-10 01:22:00,
2013-05-09 21:32:00,74.0,64.0,30.08,East,89,6.0,11.0,70,-99.99,,,-99.99,,2013-05-10 01:32:00,
2013-05-09 21:42:00,72.0,63.0,30.09,East,89,5.0,7.0,72,-99.99,,,-99.99,,2013-05-10 01:42:00,
2013-05-09 21:52:00,72.0,63.0,30.09,East,89,5.0,7.0,72,-99.99,,,-99.99,,2013-05-10 01:52:00,
2013-05-09 22:02:00,71.0,63.0,30.10,East,93,4.0,7.0,74,-99.99,,,-99.99,,2013-05-10 02:02:00,
2013-05-09 22:11:00,71.0,63.0,30.10,ESE,103,5.0,8.0,75,-99.99,,,-99.99,,2013-05-10 02:11:00,
2013-05-09 22:21:00,71.0,63.0,30.10,ESE,103,5.0,8.0,75,-99.99,,,-99.99,,2013-05-10 02:21:00,
2013-05-09 22:32:00,71.0,63.0,30.10,ESE,103,5.0,8.0,75,-99.99,,,-99.99,,2013-05-10 02:32:00,
2013-05-09 22:42:00,70.0,63.0,30.11,East,96,5.0,9.0,79,-99.99,,,-99.99,,2013-05-10 02:42:00,
2013-05-09 22:53:00,70.0,63.0,30.11,East,96,5.0,9.0,79,-99.99,,,-99.99,,2013-05-10 02:53:00,
2013-05-09 23:01:00,70.0,64.0,30.12,East,94,5.0,11.0,81,-99.99,,,-99.99,,2013-05-10 03:01:00,
2013-05-09 23:11:00,70.0,64.0,30.11,ESE,108,5.0,9.0,82,-99.99,,,-99.99,,2013-05-10 03:11:00,
2013-05-09 23:22:00,70.0,64.0,30.11,ESE,108,5.0,9.0,82,-99.99,,,-99.99,,2013-05-10 03:22:00,
2013-05-09 23:33:00,70.0,64.0,30.11,ESE,108,5.0,9.0,82,-99.99,,,-99.99,,2013-05-10 03:33:00,
2013-05-09 23:43:00,69.0,64.0,30.12,ESE,121,5.0,9.0,84,-99.99,,,-99.99,,2013-05-10 03:43:00,
2013-05-09 23:53:00,69.0,64.0,30.12,ESE,121,5.0,9.0,84,-99.99,,,-99.99,,2013-05-10 03:53:00,